Time;durP1;ratioP1;P1;durP2;ratioP2;P2;SDS_P1;SDS_P2;PMS_P1;PMS_P2;Temp;Humidity;BMP_temperature;BMP_pressure;BME280_temperature;BME280_humidity;BME280_pressure;Samples;Min_cycle;Max_cycle;Signal;HPM_P1;HPM_P2
2023/09/04 03:02:31;;;;;;;;;;;12.30;99.90;;;;;;5037346;23;19929;-78
2023/09/04 03:04:56;;;;;;;;;;;12.30;99.90;;;;;;4977574;28;20112;-80
2023/09/04 03:07:22;;;;;;;;;;;12.30;99.90;;;;;;4961143;28;19949;-79
2023/09/04 03:09:52;;;;;;;;;;;12.30;99.90;;;;;;4977258;28;20021;-82
2023/09/04 03:12:18;;;;;;;;;;;12.30;99.90;;;;;;4976841;28;19929;-80
2023/09/04 03:14:43;;;;;;;;;;;12.30;99.90;;;;;;4976896;28;19926;-78
2023/09/04 03:17:09;;;;;;;;;;;12.30;99.90;;;;;;4960582;28;20375;-78
2023/09/04 03:19:35;;;;;;;;;;;12.30;99.90;;;;;;4977177;28;19922;-77
2023/09/04 03:22:00;;;;;;;;;;;12.30;99.90;;;;;;4976197;28;19973;-77
2023/09/04 03:24:26;;;;;;;;;;;12.30;99.90;;;;;;4976581;28;19922;-77
2023/09/04 03:26:52;;;;;;;;;;;12.30;99.90;;;;;;4976102;28;20016;-78
2023/09/04 03:29:17;;;;;;;;;;;12.30;99.90;;;;;;4959668;28;19949;-77
2023/09/04 03:31:43;;;;;;;;;;;12.20;99.90;;;;;;4975804;28;19949;-78
2023/09/04 03:34:09;;;;;;;;;;;12.20;99.90;;;;;;4976284;28;19923;-79
2023/09/04 03:36:34;;;;;;;;;;;12.20;99.90;;;;;;4976138;28;20029;-75
2023/09/04 03:39:00;;;;;;;;;;;12.20;99.90;;;;;;4976211;28;20017;-76
2023/09/04 03:41:26;;;;;;;;;;;12.10;99.90;;;;;;4976184;28;19933;-77
2023/09/04 03:43:52;;;;;;;;;;;12.10;99.90;;;;;;4960599;28;20020;-80
2023/09/04 03:46:18;;;;;;;;;;;12.10;99.90;;;;;;4977553;28;19966;-78
2023/09/04 03:48:43;;;;;;;;;;;12.10;99.90;;;;;;4975967;28;19930;-80
2023/09/04 03:51:09;;;;;;;;;;;12.00;99.90;;;;;;4975947;28;19922;-77
2023/09/04 03:53:35;;;;;;;;;;;12.00;99.90;;;;;;4960067;28;19975;-76
2023/09/04 03:56:03;;;;;;;;;;;11.90;99.90;;;;;;4977352;28;19922;-76
2023/09/04 03:58:31;;;;;;;;;;;11.90;99.90;;;;;;4975748;28;19922;-76
2023/09/04 04:00:57;;;;;;;;;;;11.90;99.90;;;;;;4975597;28;19926;-77
2023/09/04 04:03:23;;;;;;;;;;;11.90;99.90;;;;;;4975877;28;20016;-76
2023/09/04 04:05:48;;;;;;;;;;;11.90;99.90;;;;;;4977067;28;19966;-77
2023/09/04 04:08:14;;;;;;;;;;;11.90;99.90;;;;;;4975814;28;19926;-79
2023/09/04 04:10:39;;;;;;;;;;;11.90;99.90;;;;;;4975520;28;19922;-79
2023/09/04 04:13:05;;;;;;;;;;;11.80;99.90;;;;;;4976997;28;19922;-78
2023/09/04 04:15:30;;;;;;;;;;;11.80;99.90;;;;;;4975613;28;19922;-76
2023/09/04 04:17:56;;;;;;;;;;;11.80;99.90;;;;;;4978023;28;20010;-76
2023/09/04 04:20:22;;;;;;;;;;;11.80;99.90;;;;;;4978774;28;19934;-75
2023/09/04 04:22:47;;;;;;;;;;;11.80;99.90;;;;;;4977599;28;20026;-77
2023/09/04 04:25:13;;;;;;;;;;;11.80;99.90;;;;;;4975215;28;19922;-79
2023/09/04 04:27:39;;;;;;;;;;;11.70;99.90;;;;;;4976715;28;19984;-80
2023/09/04 04:30:05;;;;;;;;;;;11.70;99.90;;;;;;4977008;28;20332;-78
2023/09/04 04:32:30;;;;;;;;;;;11.70;99.90;;;;;;4975376;28;19929;-78
2023/09/04 04:34:56;;;;;;;;;;;11.70;99.90;;;;;;4975286;28;19929;-76
2023/09/04 04:37:21;;;;;;;;;;;11.60;99.90;;;;;;4975294;28;19965;-81
2023/09/04 04:39:47;;;;;;;;;;;11.50;99.90;;;;;;4975449;28;19969;-80
2023/09/04 04:42:12;;;;;;;;;;;11.50;99.90;;;;;;4974771;28;20368;-77
2023/09/04 04:44:38;;;;;;;;;;;11.50;99.90;;;;;;4974994;28;19922;-77
2023/09/04 04:47:04;;;;;;;;;;;11.40;99.90;;;;;;4976486;28;20020;-80
2023/09/04 04:49:30;;;;;;;;;;;11.50;99.90;;;;;;4975123;28;19922;-76
2023/09/04 04:51:56;;;;;;;;;;;11.50;99.90;;;;;;4974611;28;19922;-80
2023/09/04 04:54:22;;;;;;;;;;;11.40;99.90;;;;;;4974734;28;19996;-79
2023/09/04 04:56:48;;;;;;;;;;;11.40;99.90;;;;;;4974731;28;19929;-78
2023/09/04 04:59:14;;;;;;;;;;;11.40;99.90;;;;;;4975174;28;20268;-76
2023/09/04 05:01:39;;;;;;;;;;;11.40;99.90;;;;;;4958597;28;19926;-76
2023/09/04 05:04:05;;;;;;;;;;;11.50;99.90;;;;;;4974499;28;19922;-77
2023/09/04 05:06:30;;;;;;;;;;;11.40;99.90;;;;;;4974733;28;20019;-79
2023/09/04 05:08:56;;;;;;;;;;;11.50;99.90;;;;;;4974657;28;19922;-79
2023/09/04 05:11:21;;;;;;;;;;;11.40;99.90;;;;;;4974442;28;19984;-78
2023/09/04 05:13:47;;;;;;;;;;;11.40;99.90;;;;;;4974766;28;19929;-76
2023/09/04 05:16:14;;;;;;;;;;;11.50;99.90;;;;;;4974149;28;20356;-78
2023/09/04 05:18:40;;;;;;;;;;;11.50;99.90;;;;;;4974571;28;19922;-81
2023/09/04 05:21:06;;;;;;;;;;;11.50;99.90;;;;;;4958379;28;19926;-79
2023/09/04 05:23:32;;;;;;;;;;;11.50;99.90;;;;;;4974379;28;19974;-77
2023/09/04 05:25:57;;;;;;;;;;;11.50;99.90;;;;;;4974192;28;20292;-78
2023/09/04 05:28:23;;;;;;;;;;;11.50;99.90;;;;;;4974264;28;19929;-79
2023/09/04 05:30:49;;;;;;;;;;;11.50;99.90;;;;;;4974377;28;19922;-80
2023/09/04 05:33:14;;;;;;;;;;;11.50;99.90;;;;;;4974356;28;19933;-80
2023/09/04 05:35:40;;;;;;;;;;;11.60;99.90;;;;;;4974536;28;19922;-78
2023/09/04 05:38:05;;;;;;;;;;;11.60;99.90;;;;;;4974272;28;19969;-78
2023/09/04 05:40:31;;;;;;;;;;;11.60;99.90;;;;;;4975555;28;20037;-78
2023/09/04 05:42:57;;;;;;;;;;;11.70;99.90;;;;;;4974490;28;20006;-78
2023/09/04 05:45:23;;;;;;;;;;;11.70;99.90;;;;;;4974534;28;20405;-79
2023/09/04 05:47:49;;;;;;;;;;;11.70;99.90;;;;;;4974071;28;19922;-82
2023/09/04 05:50:15;;;;;;;;;;;11.80;99.90;;;;;;4974104;28;19926;-76
2023/09/04 05:52:40;;;;;;;;;;;11.80;99.90;;;;;;4973536;28;20005;-76
2023/09/04 05:55:06;;;;;;;;;;;11.90;99.90;;;;;;4974092;28;19965;-77
2023/09/04 05:57:32;;;;;;;;;;;11.90;99.90;;;;;;4974361;28;20323;-77
2023/09/04 05:59:58;;;;;;;;;;;12.00;99.90;;;;;;4973872;28;19985;-81
2023/09/04 06:02:24;;;;;;;;;;;12.00;99.90;;;;;;4973833;28;20009;-79
2023/09/04 06:04:50;;;;;;;;;;;12.00;99.90;;;;;;4973840;28;19922;-77
2023/09/04 06:07:15;;;;;;;;;;;12.10;99.90;;;;;;4975297;28;19985;-77
2023/09/04 06:09:44;;;;;;;;;;;12.10;99.90;;;;;;4957889;28;20331;-81
2023/09/04 06:12:11;;;;;;;;;;;12.10;99.90;;;;;;4973879;28;20009;-79
2023/09/04 06:14:37;;;;;;;;;;;12.20;99.90;;;;;;4958314;28;20022;-80
2023/09/04 06:17:02;;;;;;;;;;;12.30;99.90;;;;;;4973743;28;20374;-77
2023/09/04 06:19:28;;;;;;;;;;;12.30;99.90;;;;;;4974182;28;19922;-80
2023/09/04 06:21:54;;;;;;;;;;;12.30;99.90;;;;;;4975309;28;20292;-81
2023/09/04 06:24:19;;;;;;;;;;;12.40;99.90;;;;;;4975408;28;20346;-77
2023/09/04 06:26:45;;;;;;;;;;;12.40;99.90;;;;;;4973853;28;19922;-80
2023/09/04 06:29:10;;;;;;;;;;;12.50;99.90;;;;;;4973620;28;19926;-81
2023/09/04 06:31:36;;;;;;;;;;;12.60;99.90;;;;;;4958569;28;20123;-76
2023/09/04 06:34:03;;;;;;;;;;;12.60;99.90;;;;;;4973443;28;19922;-80
2023/09/04 06:36:29;;;;;;;;;;;12.70;99.90;;;;;;4957687;28;19922;-80
2023/09/04 06:38:54;;;;;;;;;;;12.80;99.90;;;;;;4973841;28;19933;-76
2023/09/04 06:41:21;;;;;;;;;;;12.90;99.90;;;;;;4973578;28;20272;-77
2023/09/04 06:43:47;;;;;;;;;;;13.00;99.90;;;;;;4973371;28;19929;-79
2023/09/04 06:46:13;;;;;;;;;;;13.10;99.90;;;;;;4973220;28;19922;-78
2023/09/04 06:48:39;;;;;;;;;;;13.10;99.90;;;;;;4973448;28;20500;-77
2023/09/04 06:51:04;;;;;;;;;;;13.20;99.90;;;;;;4973528;28;19943;-77
2023/09/04 06:53:30;;;;;;;;;;;13.30;99.90;;;;;;4973496;28;19923;-76
2023/09/04 06:55:55;;;;;;;;;;;13.40;99.90;;;;;;4973510;28;19973;-76
2023/09/04 06:58:22;;;;;;;;;;;13.40;99.90;;;;;;4974867;28;19922;-77
2023/09/04 07:00:47;;;;;;;;;;;13.50;99.90;;;;;;4973116;28;19933;-78
2023/09/04 07:03:13;;;;;;;;;;;13.60;99.90;;;;;;4973587;28;19922;-80
2023/09/04 07:05:39;;;;;;;;;;;13.70;99.90;;;;;;4975000;28;19976;-79
2023/09/04 07:08:04;;;;;;;;;;;13.70;99.90;;;;;;4978114;28;19942;-76
2023/09/04 07:10:31;;;;;;;;;;;13.80;99.90;;;;;;4976616;28;20303;-78
2023/09/04 07:12:56;;;;;;;;;;;13.90;99.90;;;;;;4976670;28;19922;-80
2023/09/04 07:15:22;;;;;;;;;;;14.00;99.90;;;;;;4976634;28;19922;-80
2023/09/04 07:17:47;;;;;;;;;;;14.20;99.90;;;;;;4976502;28;19922;-78
2023/09/04 07:20:13;;;;;;;;;;;14.30;99.90;;;;;;4977756;28;19977;-77
2023/09/04 07:22:38;;;;;;;;;;;14.40;99.90;;;;;;4977590;28;19922;-76
2023/09/04 07:25:05;;;;;;;;;;;14.50;99.90;;;;;;4976366;28;19926;-76
2023/09/04 07:27:31;;;;;;;;;;;14.60;99.90;;;;;;4976256;28;19961;-76
2023/09/04 07:29:58;;;;;;;;;;;14.70;99.90;;;;;;4960193;28;19969;-76
2023/09/04 07:32:25;;;;;;;;;;;14.70;99.90;;;;;;4976212;28;19929;-77
2023/09/04 07:34:55;;;;;;;;;;;14.80;99.90;;;;;;4976598;28;19937;-81
2023/09/04 07:37:27;;;;;;;;;;;14.90;99.90;;;;;;4976444;28;19922;-76
2023/09/04 07:39:53;;;;;;;;;;;15.10;99.90;;;;;;4976301;28;19922;-77
2023/09/04 07:42:19;;;;;;;;;;;15.10;99.90;;;;;;4976054;28;20360;-79
2023/09/04 07:44:44;;;;;;;;;;;15.20;99.90;;;;;;4976357;28;20013;-77
2023/09/04 07:47:10;;;;;;;;;;;15.30;99.90;;;;;;4976053;28;19922;-78
2023/09/04 07:49:35;;;;;;;;;;;15.50;99.90;;;;;;4960076;28;19923;-77
2023/09/04 07:52:01;;;;;;;;;;;15.60;99.90;;;;;;4976080;28;19949;-77
2023/09/04 07:54:27;;;;;;;;;;;15.70;99.90;;;;;;4976307;28;19922;-77
2023/09/04 07:56:52;;;;;;;;;;;15.80;99.90;;;;;;4976188;28;19960;-78
2023/09/04 07:59:18;;;;;;;;;;;15.90;99.90;;;;;;4975846;28;19922;-77
2023/09/04 08:01:43;;;;;;;;;;;16.00;99.90;;;;;;4976569;28;19930;-80
2023/09/04 08:04:09;;;;;;;;;;;16.10;99.90;;;;;;4975528;28;19929;-78
2023/09/04 08:06:35;;;;;;;;;;;16.20;99.90;;;;;;4975928;28;19925;-76
2023/09/04 08:09:01;;;;;;;;;;;16.40;99.90;;;;;;4975768;28;20021;-79
2023/09/04 08:11:26;;;;;;;;;;;16.50;99.90;;;;;;4975519;28;20392;-75
2023/09/04 08:13:52;;;;;;;;;;;16.60;99.90;;;;;;4975450;28;19922;-78
2023/09/04 08:16:17;;;;;;;;;;;16.80;99.90;;;;;;4976251;28;19973;-78
2023/09/04 08:18:43;;;;;;;;;;;16.90;99.90;;;;;;4976649;28;19969;-81
2023/09/04 08:21:09;;;;;;;;;;;17.10;99.90;;;;;;4975305;28;20303;-78
2023/09/04 08:23:34;;;;;;;;;;;17.20;99.90;;;;;;4975920;28;19932;-77
2023/09/04 08:26:01;;;;;;;;;;;17.30;99.90;;;;;;4977078;28;19922;-78
2023/09/04 08:28:26;;;;;;;;;;;17.40;99.90;;;;;;4977032;28;19929;-76
2023/09/04 08:30:52;;;;;;;;;;;17.50;99.90;;;;;;4975858;28;19922;-78
2023/09/04 08:33:17;;;;;;;;;;;17.60;99.90;;;;;;4975284;28;19922;-76
2023/09/04 08:35:43;;;;;;;;;;;17.80;99.90;;;;;;4959018;28;19929;-77
2023/09/04 08:38:08;;;;;;;;;;;17.90;99.90;;;;;;4975525;28;19929;-78
2023/09/04 08:40:34;;;;;;;;;;;18.00;99.90;;;;;;4975182;28;19926;-77
2023/09/04 08:43:00;;;;;;;;;;;18.10;99.90;;;;;;4975305;28;19924;-76
2023/09/04 08:45:26;;;;;;;;;;;18.20;99.90;;;;;;4975427;28;20295;-79
2023/09/04 08:47:53;;;;;;;;;;;18.30;99.90;;;;;;4976085;28;20307;-79
2023/09/04 08:50:21;;;;;;;;;;;18.40;99.90;;;;;;4975193;28;19922;-76
2023/09/04 08:52:48;;;;;;;;;;;18.50;99.90;;;;;;4975305;28;19989;-81
2023/09/04 08:55:14;;;;;;;;;;;18.60;99.90;;;;;;4974707;28;19922;-79
2023/09/04 08:57:42;;;;;;;;;;;18.60;99.90;;;;;;4974917;28;19974;-78
2023/09/04 09:00:08;;;;;;;;;;;18.70;99.90;;;;;;4976219;28;19929;-78
2023/09/04 09:02:33;;;;;;;;;;;18.90;99.90;;;;;;4974825;28;19922;-79
2023/09/04 09:04:59;;;;;;;;;;;19.00;99.90;;;;;;4974673;28;20024;-78
2023/09/04 09:07:27;;;;;;;;;;;19.10;99.90;;;;;;4976447;28;19926;-80
2023/09/04 09:09:52;;;;;;;;;;;19.20;99.90;;;;;;4974743;28;19922;-80
2023/09/04 09:12:18;;;;;;;;;;;19.30;99.90;;;;;;4975881;28;19945;-78
2023/09/04 09:14:43;;;;;;;;;;;19.40;99.90;;;;;;4974658;28;19976;-81
2023/09/04 09:17:15;;;;;;;;;;;19.60;99.90;;;;;;4974782;28;19980;-80
2023/09/04 09:19:42;;;;;;;;;;;19.70;99.90;;;;;;4974813;28;19929;-78
2023/09/04 09:22:11;;;;;;;;;;;19.80;99.90;;;;;;4975546;28;19926;-78
2023/09/04 09:24:56;;;;;;;;;;;20.00;99.90;;;;;;4974525;28;20004;-76
2023/09/04 09:27:23;;;;;;;;;;;20.10;99.90;;;;;;4974352;28;19969;-79
2023/09/04 09:29:49;;;;;;;;;;;20.20;99.90;;;;;;4974299;28;19922;-77
2023/09/04 09:32:18;;;;;;;;;;;20.30;99.90;;;;;;4974336;28;19926;-78
2023/09/04 09:34:48;;;;;;;;;;;20.40;99.90;;;;;;4975022;28;19929;-77
2023/09/04 09:37:13;;;;;;;;;;;20.60;99.90;;;;;;4974399;28;20058;-78
2023/09/04 09:39:39;;;;;;;;;;;20.70;99.90;;;;;;4974089;28;19965;-77
2023/09/04 09:42:05;;;;;;;;;;;20.80;99.90;;;;;;4974303;28;20031;-79
2023/09/04 09:44:33;;;;;;;;;;;20.80;99.90;;;;;;4958013;28;19969;-80
2023/09/04 09:46:59;;;;;;;;;;;20.90;99.90;;;;;;4974038;28;19926;-79
2023/09/04 09:49:24;;;;;;;;;;;21.00;99.90;;;;;;4975452;28;20298;-80
2023/09/04 09:51:52;;;;;;;;;;;21.00;99.90;;;;;;4973982;28;19922;-77
2023/09/04 09:54:51;;;;;;;;;;;21.00;99.90;;;;;;4975381;28;19922;-80
2023/09/04 09:57:17;;;;;;;;;;;21.10;99.90;;;;;;4963506;28;19922;-80
2023/09/04 09:59:47;;;;;;;;;;;21.20;99.90;;;;;;4974195;28;19969;-76
2023/09/04 10:02:17;;;;;;;;;;;21.30;99.90;;;;;;4975029;28;19933;-77
2023/09/04 10:04:42;;;;;;;;;;;21.30;99.90;;;;;;4973933;28;19922;-78
2023/09/04 10:07:09;;;;;;;;;;;21.40;99.90;;;;;;4975569;28;19922;-79
2023/09/04 10:09:37;;;;;;;;;;;21.50;99.90;;;;;;4974107;28;19926;-78
2023/09/04 10:12:15;;;;;;;;;;;21.70;99.90;;;;;;4973953;28;19922;-79
2023/09/04 10:14:42;;;;;;;;;;;21.80;99.90;;;;;;4974731;28;19922;-80
2023/09/04 10:17:14;;;;;;;;;;;21.90;99.90;;;;;;4975643;28;19929;-79
2023/09/04 10:19:40;;;;;;;;;;;22.00;99.90;;;;;;4974247;28;19933;-80
2023/09/04 10:22:07;;;;;;;;;;;22.00;99.90;;;;;;4972427;28;20397;-77
2023/09/04 10:24:35;;;;;;;;;;;22.10;99.90;;;;;;4973957;28;19922;-80
2023/09/04 10:27:10;;;;;;;;;;;22.10;99.90;;;;;;4974171;28;19929;-78
2023/09/04 10:30:00;;;;;;;;;;;22.20;99.90;;;;;;4974234;28;19922;-76
2023/09/04 10:32:26;;;;;;;;;;;22.30;99.90;;;;;;4974139;28;20371;-77
2023/09/04 10:34:51;;;;;;;;;;;22.40;99.90;;;;;;4973915;28;19926;-81
2023/09/04 10:37:17;;;;;;;;;;;22.50;99.90;;;;;;4975092;28;20281;-77
2023/09/04 10:39:43;;;;;;;;;;;22.60;99.90;;;;;;4959239;28;19922;-79
2023/09/04 10:42:09;;;;;;;;;;;22.60;99.90;;;;;;4977461;28;19949;-81
2023/09/04 10:44:47;;;;;;;;;;;22.70;99.90;;;;;;4977413;28;20409;-79
2023/09/04 10:47:13;;;;;;;;;;;22.80;99.90;;;;;;4977416;28;19929;-80
2023/09/04 10:49:41;;;;;;;;;;;22.80;99.90;;;;;;4977657;28;20016;-79
2023/09/04 10:52:08;;;;;;;;;;;22.80;99.90;;;;;;4978673;28;19964;-80
2023/09/04 10:54:33;;;;;;;;;;;22.90;99.90;;;;;;4961516;28;19923;-78
2023/09/04 10:57:00;;;;;;;;;;;22.90;99.90;;;;;;4961355;28;20348;-81
2023/09/04 10:59:26;;;;;;;;;;;23.00;99.90;;;;;;4977791;28;19932;-78
2023/09/04 11:01:52;;;;;;;;;;;23.00;99.90;;;;;;4960932;28;20009;-78
2023/09/04 11:04:32;;;;;;;;;;;23.10;99.90;;;;;;4961411;28;20009;-77
2023/09/04 11:07:20;;;;;;;;;;;23.30;99.90;;;;;;4977086;28;20435;-78
2023/09/04 11:09:53;;;;;;;;;;;23.30;99.90;;;;;;4975190;28;19929;-81
2023/09/04 11:12:19;;;;;;;;;;;23.30;99.90;;;;;;4976695;28;19962;-79
2023/09/04 11:14:46;;;;;;;;;;;23.40;99.90;;;;;;4976979;28;19926;-77
2023/09/04 11:17:14;;;;;;;;;;;23.50;99.90;;;;;;4976972;28;19929;-80
2023/09/04 11:19:39;;;;;;;;;;;23.60;99.90;;;;;;4976437;28;19922;-77
2023/09/04 11:22:05;;;;;;;;;;;23.60;99.90;;;;;;4959708;28;19953;-78
2023/09/04 11:24:30;;;;;;;;;;;23.70;99.90;;;;;;4976344;28;19928;-80
2023/09/04 11:26:56;;;;;;;;;;;23.80;99.90;;;;;;4977770;28;20012;-81
2023/09/04 11:29:21;;;;;;;;;;;23.90;99.90;;;;;;4976556;28;20028;-78
2023/09/04 11:31:47;;;;;;;;;;;23.90;99.90;;;;;;4976094;28;20261;-78
2023/09/04 11:34:22;;;;;;;;;;;24.10;99.90;;;;;;4976417;28;19922;-80
2023/09/04 11:36:47;;;;;;;;;;;24.10;99.90;;;;;;4959763;28;20372;-80
2023/09/04 11:39:13;;;;;;;;;;;24.20;99.90;;;;;;4960534;28;19929;-77
2023/09/04 11:41:39;;;;;;;;;;;24.20;99.90;;;;;;4977355;28;19933;-80
2023/09/04 11:44:05;;;;;;;;;;;24.30;99.90;;;;;;4975878;28;19941;-77
2023/09/04 11:46:31;;;;;;;;;;;24.30;99.90;;;;;;4976259;28;19973;-80
2023/09/04 11:48:57;;;;;;;;;;;24.30;99.90;;;;;;4976194;28;19922;-82
2023/09/04 11:51:23;;;;;;;;;;;24.30;99.90;;;;;;4976482;28;19928;-79
2023/09/04 11:53:48;;;;;;;;;;;24.30;99.90;;;;;;4975796;28;20303;-78
2023/09/04 11:56:14;;;;;;;;;;;24.20;99.90;;;;;;4976938;28;19926;-80
2023/09/04 11:58:40;;;;;;;;;;;24.20;99.90;;;;;;4975991;28;19972;-80
2023/09/04 12:01:05;;;;;;;;;;;24.30;99.90;;;;;;4975384;28;19926;-78
2023/09/04 12:03:31;;;;;;;;;;;24.40;99.90;;;;;;4977237;28;19922;-79
2023/09/04 12:05:56;;;;;;;;;;;24.40;99.90;;;;;;4975483;28;19922;-77
2023/09/04 12:08:22;;;;;;;;;;;24.40;99.90;;;;;;4977406;28;20319;-80
2023/09/04 12:10:49;;;;;;;;;;;24.50;99.90;;;;;;4975400;28;20379;-80
2023/09/04 12:13:15;;;;;;;;;;;24.50;99.90;;;;;;4976100;28;19969;-80
2023/09/04 12:15:41;;;;;;;;;;;24.60;99.90;;;;;;4959577;28;19977;-77
2023/09/04 12:18:07;;;;;;;;;;;24.60;99.90;;;;;;4956400;29;19926;-80
2023/09/04 12:20:36;;;;;;;;;;;24.50;99.90;;;;;;4971869;28;20034;-79
2023/09/04 12:23:01;;;;;;;;;;;24.50;99.90;;;;;;4972520;28;20439;-78
2023/09/04 12:25:37;;;;;;;;;;;24.50;99.90;;;;;;4972136;28;20018;-79
2023/09/04 12:28:06;;;;;;;;;;;24.50;99.90;;;;;;4957646;28;20292;-79
2023/09/04 12:30:35;;;;;;;;;;;24.60;99.90;;;;;;4957114;28;19977;-77
2023/09/04 12:33:01;;;;;;;;;;;24.60;99.90;;;;;;4972075;28;20387;-78
2023/09/04 12:35:29;;;;;;;;;;;24.60;99.90;;;;;;4971854;28;19923;-77
2023/09/04 12:37:54;;;;;;;;;;;24.70;99.90;;;;;;4956098;29;20324;-79
2023/09/04 12:40:21;;;;;;;;;;;24.60;99.90;;;;;;4956002;28;19933;-78
2023/09/04 12:42:46;;;;;;;;;;;24.70;99.90;;;;;;4972129;28;19923;-77
2023/09/04 12:45:12;;;;;;;;;;;24.70;99.90;;;;;;4971655;28;20399;-79
2023/09/04 12:47:40;;;;;;;;;;;24.70;99.90;;;;;;4955492;28;19988;-79
2023/09/04 12:50:05;;;;;;;;;;;24.60;99.90;;;;;;4956769;28;20368;-77
2023/09/04 12:52:31;;;;;;;;;;;24.70;99.90;;;;;;4971473;28;19938;-79
2023/09/04 12:54:57;;;;;;;;;;;24.70;99.90;;;;;;4971842;28;19922;-80
2023/09/04 12:57:22;;;;;;;;;;;24.80;99.90;;;;;;4971704;28;19929;-77
2023/09/04 12:59:48;;;;;;;;;;;24.80;99.90;;;;;;4972373;28;19945;-78
2023/09/04 13:02:13;;;;;;;;;;;24.70;99.90;;;;;;4958759;28;20280;-79
2023/09/04 13:04:39;;;;;;;;;;;24.70;99.90;;;;;;4975049;28;20288;-78
2023/09/04 13:07:05;;;;;;;;;;;24.70;99.90;;;;;;4974742;28;20380;-78
2023/09/04 13:09:30;;;;;;;;;;;24.60;99.90;;;;;;4955489;29;19922;-78
2023/09/04 13:11:58;;;;;;;;;;;24.70;99.90;;;;;;4971089;28;20400;-77
2023/09/04 13:14:24;;;;;;;;;;;24.70;99.90;;;;;;4955021;29;19923;-78
2023/09/04 13:16:49;;;;;;;;;;;24.70;99.90;;;;;;4971018;28;19922;-79
2023/09/04 13:19:16;;;;;;;;;;;24.70;99.90;;;;;;4970938;28;19933;-78
2023/09/04 13:21:42;;;;;;;;;;;24.80;99.90;;;;;;4954695;28;20021;-77
2023/09/04 13:24:07;;;;;;;;;;;25.00;99.90;;;;;;4971280;28;19977;-76
2023/09/04 13:26:33;;;;;;;;;;;25.10;99.90;;;;;;4970994;28;20021;-76
2023/09/04 13:28:59;;;;;;;;;;;25.10;99.90;;;;;;4954737;28;19977;-79
2023/09/04 13:31:24;;;;;;;;;;;25.00;99.90;;;;;;4970764;28;19981;-80
2023/09/04 13:33:50;;;;;;;;;;;25.00;99.90;;;;;;4970782;28;19926;-80
2023/09/04 13:36:15;;;;;;;;;;;25.10;99.90;;;;;;4954665;28;19922;-80
2023/09/04 13:38:41;;;;;;;;;;;25.00;99.90;;;;;;4970608;28;19930;-78
2023/09/04 13:41:06;;;;;;;;;;;25.10;99.90;;;;;;4955967;28;19926;-76
2023/09/04 13:43:32;;;;;;;;;;;25.10;99.90;;;;;;4970634;28;19976;-78
2023/09/04 13:45:57;;;;;;;;;;;25.20;99.90;;;;;;4954509;28;20323;-77
2023/09/04 13:48:23;;;;;;;;;;;25.20;99.90;;;;;;4970585;28;19965;-78
2023/09/04 13:50:49;;;;;;;;;;;25.20;99.90;;;;;;4970420;28;20325;-77
2023/09/04 13:53:14;;;;;;;;;;;25.30;99.90;;;;;;4954392;29;19934;-79
2023/09/04 13:55:40;;;;;;;;;;;25.30;99.90;;;;;;4970782;28;19946;-79
2023/09/04 13:58:05;;;;;;;;;;;25.30;99.90;;;;;;4955605;28;19941;-76
2023/09/04 14:00:31;;;;;;;;;;;25.30;99.90;;;;;;4970135;28;19950;-79
2023/09/04 14:02:56;;;;;;;;;;;25.30;99.90;;;;;;4970457;28;19922;-78
2023/09/04 14:05:22;;;;;;;;;;;25.30;99.90;;;;;;4955781;28;19950;-78
2023/09/04 14:07:47;;;;;;;;;;;25.20;99.90;;;;;;4970865;28;19922;-78
2023/09/04 14:10:13;;;;;;;;;;;25.20;99.90;;;;;;4955990;28;19930;-79
2023/09/04 14:12:39;;;;;;;;;;;25.20;99.90;;;;;;4970207;28;20376;-79
2023/09/04 14:15:05;;;;;;;;;;;25.10;99.90;;;;;;4972681;28;19961;-78
2023/09/04 14:17:31;;;;;;;;;;;25.10;99.90;;;;;;4959696;28;19926;-78
2023/09/04 14:19:56;;;;;;;;;;;25.00;99.90;;;;;;4974336;28;19968;-78
2023/09/04 14:22:22;;;;;;;;;;;25.00;99.90;;;;;;4974025;28;20288;-79
2023/09/04 14:24:48;;;;;;;;;;;24.90;99.90;;;;;;4959252;28;19922;-77
2023/09/04 14:27:13;;;;;;;;;;;24.90;99.90;;;;;;4974139;28;19923;-78
2023/09/04 14:29:39;;;;;;;;;;;24.80;99.90;;;;;;4957908;29;19922;-79
2023/09/04 14:32:05;;;;;;;;;;;24.80;99.90;;;;;;4958074;28;19932;-77
2023/09/04 14:34:31;;;;;;;;;;;24.90;99.90;;;;;;4973907;28;20288;-78
2023/09/04 14:36:56;;;;;;;;;;;24.90;99.90;;;;;;4973927;28;19945;-77
2023/09/04 14:39:22;;;;;;;;;;;24.90;99.90;;;;;;4973937;28;19929;-79
2023/09/04 14:41:47;;;;;;;;;;;24.90;99.90;;;;;;4957569;28;19926;-78
2023/09/04 14:44:13;;;;;;;;;;;25.00;99.90;;;;;;4957735;29;20010;-78
2023/09/04 14:46:38;;;;;;;;;;;25.00;99.90;;;;;;4973758;28;19922;-77
2023/09/04 14:49:05;;;;;;;;;;;25.00;99.90;;;;;;4973979;28;19926;-78
2023/09/04 14:51:30;;;;;;;;;;;25.10;99.90;;;;;;4973564;28;19922;-79
2023/09/04 14:53:56;;;;;;;;;;;25.20;99.90;;;;;;4973592;28;19922;-77
2023/09/04 14:56:22;;;;;;;;;;;25.20;99.90;;;;;;4973589;28;19922;-77
2023/09/04 14:58:48;;;;;;;;;;;25.20;99.90;;;;;;4973602;28;19929;-79
2023/09/04 15:01:19;;;;;;;;;;;25.30;99.90;;;;;;4957215;28;20009;-76
2023/09/04 15:03:45;;;;;;;;;;;25.30;99.90;;;;;;4957346;29;19933;-76
2023/09/04 15:06:11;;;;;;;;;;;25.30;99.90;;;;;;4973415;28;19928;-76
2023/09/04 15:08:37;;;;;;;;;;;25.20;99.90;;;;;;4973649;28;20005;-78
2023/09/04 15:11:05;;;;;;;;;;;25.20;99.90;;;;;;4956994;28;20289;-78
2023/09/04 15:13:31;;;;;;;;;;;25.20;99.90;;;;;;4973278;28;20451;-78
2023/09/04 15:15:57;;;;;;;;;;;25.20;99.90;;;;;;4973231;28;19978;-77
2023/09/04 15:18:22;;;;;;;;;;;25.10;99.90;;;;;;4957110;29;19927;-79
2023/09/04 15:20:48;;;;;;;;;;;25.20;99.90;;;;;;4973106;28;19931;-78
2023/09/04 15:23:14;;;;;;;;;;;25.10;99.90;;;;;;4958291;28;19937;-76
2023/09/04 15:25:39;;;;;;;;;;;25.10;99.90;;;;;;4972150;28;20436;-79
2023/09/04 15:28:05;;;;;;;;;;;25.00;99.90;;;;;;4972987;28;20268;-79
2023/09/04 15:30:30;;;;;;;;;;;24.90;99.90;;;;;;4972871;28;19945;-77
2023/09/04 15:32:56;;;;;;;;;;;24.80;99.90;;;;;;4972909;28;19929;-78
2023/09/04 15:35:21;;;;;;;;;;;24.80;99.90;;;;;;4973215;28;19922;-80
2023/09/04 15:37:47;;;;;;;;;;;24.70;99.90;;;;;;4973190;28;20364;-78
2023/09/04 15:40:12;;;;;;;;;;;24.70;99.90;;;;;;4973120;28;19930;-75
2023/09/04 15:42:38;;;;;;;;;;;24.60;99.90;;;;;;4958216;28;19926;-79
2023/09/04 15:45:04;;;;;;;;;;;24.60;99.90;;;;;;4956950;28;19922;-79
2023/09/04 15:47:30;;;;;;;;;;;24.50;99.90;;;;;;4972825;28;19930;-82
2023/09/04 15:49:57;;;;;;;;;;;24.50;99.90;;;;;;4958312;28;20331;-78
2023/09/04 15:52:22;;;;;;;;;;;24.40;99.90;;;;;;4956900;28;19922;-80
2023/09/04 15:54:48;;;;;;;;;;;24.30;99.90;;;;;;4972837;28;19937;-81
2023/09/04 15:57:14;;;;;;;;;;;24.20;99.90;;;;;;4958127;29;19922;-80
2023/09/04 15:59:39;;;;;;;;;;;24.20;99.90;;;;;;4957735;28;19922;-78
2023/09/04 16:02:05;;;;;;;;;;;24.20;99.90;;;;;;4956307;28;19989;-78
2023/09/04 16:04:31;;;;;;;;;;;24.10;99.90;;;;;;4956760;28;19966;-81
2023/09/04 16:06:57;;;;;;;;;;;24.10;99.90;;;;;;4957760;28;19923;-79
2023/09/04 16:09:23;;;;;;;;;;;24.10;99.90;;;;;;4956645;29;19929;-81
2023/09/04 16:11:49;;;;;;;;;;;24.10;99.90;;;;;;4972887;28;19938;-79
2023/09/04 16:14:14;;;;;;;;;;;24.10;99.90;;;;;;4958160;28;20264;-81
2023/09/04 16:16:40;;;;;;;;;;;24.00;99.90;;;;;;4972329;28;19929;-78
2023/09/04 16:19:08;;;;;;;;;;;24.00;99.90;;;;;;4973361;28;19930;-79
2023/09/04 16:21:34;;;;;;;;;;;23.90;99.90;;;;;;4957449;28;19930;-79
2023/09/04 16:24:00;;;;;;;;;;;23.80;99.90;;;;;;4956143;28;19981;-79
2023/09/04 16:26:26;;;;;;;;;;;23.80;99.90;;;;;;4956463;28;20351;-78
2023/09/04 16:28:51;;;;;;;;;;;23.70;99.90;;;;;;4972265;28;19969;-81
2023/09/04 16:31:17;;;;;;;;;;;23.70;99.90;;;;;;4972026;28;19930;-78
2023/09/04 16:33:42;;;;;;;;;;;23.70;99.90;;;;;;4972408;28;19926;-82
2023/09/04 16:36:08;;;;;;;;;;;23.70;99.90;;;;;;4972439;28;20290;-77
2023/09/04 16:38:34;;;;;;;;;;;23.60;99.90;;;;;;4955703;28;20302;-79
2023/09/04 16:41:00;;;;;;;;;;;23.60;99.90;;;;;;4972011;28;19939;-81
2023/09/04 16:43:25;;;;;;;;;;;23.60;99.90;;;;;;4955964;29;20472;-81
2023/09/04 16:45:51;;;;;;;;;;;23.60;99.90;;;;;;4957390;28;19923;-81
2023/09/04 16:48:17;;;;;;;;;;;23.60;99.90;;;;;;4955637;29;19922;-78
2023/09/04 16:50:42;;;;;;;;;;;23.60;99.90;;;;;;4971609;28;19923;-76
2023/09/04 16:53:08;;;;;;;;;;;23.50;99.90;;;;;;4971450;28;20012;-79
2023/09/04 16:55:34;;;;;;;;;;;23.50;99.90;;;;;;4956851;28;19929;-78
2023/09/04 16:57:59;;;;;;;;;;;23.40;99.90;;;;;;4971344;28;20025;-78
2023/09/04 17:00:25;;;;;;;;;;;23.40;99.90;;;;;;4956461;28;19961;-77
2023/09/04 17:02:50;;;;;;;;;;;23.30;99.90;;;;;;4971380;28;19927;-76
2023/09/04 17:05:16;;;;;;;;;;;23.20;99.90;;;;;;4955279;28;19922;-77
2023/09/04 17:07:42;;;;;;;;;;;23.10;99.90;;;;;;4971257;28;19977;-77
2023/09/04 17:10:08;;;;;;;;;;;23.00;99.90;;;;;;4956671;28;19977;-76
2023/09/04 17:12:34;;;;;;;;;;;23.00;99.90;;;;;;4971438;28;19945;-77